createdAt,value
2023-01-05T00:01:39.389Z,1.67
2023-01-05T00:04:07.028Z,1.75
2023-01-05T00:06:34.939Z,0.70
2023-01-05T00:09:02.282Z,2.08
2023-01-05T00:11:48.108Z,1.10
2023-01-05T00:14:39.110Z,0.70
2023-01-05T00:17:25.285Z,0.50
2023-01-05T00:20:11.104Z,0.60
2023-01-05T00:22:47.764Z,1.05
2023-01-05T00:25:22.956Z,0.70
2023-01-05T00:27:51.890Z,1.73
2023-01-05T00:30:24.804Z,0.98
2023-01-05T00:32:52.404Z,2.35
2023-01-05T00:35:19.734Z,1.08
2023-01-05T00:37:47.340Z,1.42
2023-01-05T00:40:17.237Z,1.17
2023-01-05T00:42:45.070Z,1.42
2023-01-05T00:45:14.437Z,0.80
2023-01-05T00:47:41.757Z,1.45
2023-01-05T00:50:11.096Z,1.30
2023-01-05T00:52:38.199Z,2.70
2023-01-05T00:55:05.728Z,1.05
2023-01-05T00:57:32.885Z,2.70
2023-01-05T01:00:02.303Z,1.17
2023-01-05T01:02:32.162Z,1.20
2023-01-05T01:04:59.259Z,2.08
2023-01-05T01:07:26.365Z,0.80
2023-01-05T01:09:53.539Z,1.58
2023-01-05T01:12:20.940Z,1.00
2023-01-05T01:14:49.626Z,1.00
2023-01-05T01:17:18.154Z,1.20
2023-01-05T01:19:46.897Z,1.42
2023-01-05T01:22:14.798Z,1.52
2023-01-05T01:24:41.959Z,1.55
2023-01-05T01:27:09.046Z,0.95
2023-01-05T01:29:36.377Z,1.27
2023-01-05T01:32:03.832Z,1.75
2023-01-05T01:34:31.398Z,1.15
2023-01-05T01:36:59.286Z,1.20
2023-01-05T01:39:26.431Z,1.08
2023-01-05T01:41:53.525Z,1.58
2023-01-05T01:44:53.134Z,1.45
2023-01-05T01:47:35.403Z,1.40
2023-01-05T01:50:13.265Z,2.23
2023-01-05T01:52:41.563Z,2.92
2023-01-05T01:55:09.749Z,3.08
2023-01-05T01:57:38.865Z,2.53
2023-01-05T02:00:09.534Z,2.47
2023-01-05T02:02:36.753Z,3.83
2023-01-05T02:05:09.104Z,4.15
2023-01-05T02:07:43.201Z,3.45
2023-01-05T02:10:10.416Z,3.15
2023-01-05T02:13:11.379Z,3.13
2023-01-05T02:16:20.045Z,1.90
2023-01-05T02:19:40.981Z,2.22
2023-01-05T02:22:20.185Z,2.10
2023-01-05T02:25:15.098Z,2.63
2023-01-05T02:27:50.050Z,2.15
2023-01-05T02:30:47.841Z,2.65
2023-01-05T02:33:24.547Z,3.10
2023-01-05T02:36:14.969Z,3.60
2023-01-05T02:38:55.696Z,2.90
2023-01-05T02:41:31.735Z,2.92
2023-01-05T02:44:00.337Z,4.03
2023-01-05T02:46:27.434Z,3.03
2023-01-05T02:48:58.400Z,3.45
2023-01-05T02:51:52.989Z,3.90
2023-01-05T02:54:39.411Z,4.07
2023-01-05T02:57:18.113Z,4.38
2023-01-05T02:59:51.225Z,4.07
2023-01-05T03:02:24.010Z,5.13
2023-01-05T03:07:30.869Z,5.25
2023-01-05T03:09:58.197Z,4.35
2023-01-05T03:12:51.693Z,4.55
2023-01-05T03:15:28.547Z,5.93
2023-01-05T03:17:58.919Z,5.13
2023-01-05T03:20:30.148Z,4.63
2023-01-05T03:23:18.899Z,5.40
2023-01-05T03:26:07.199Z,6.72
2023-01-05T03:29:03.759Z,7.57
2023-01-05T03:31:57.937Z,7.97
2023-01-05T03:34:59.359Z,7.47
2023-01-05T03:37:34.696Z,6.20
2023-01-05T03:40:06.308Z,6.40
2023-01-05T03:42:34.067Z,6.50
2023-01-05T03:45:02.031Z,5.55
2023-01-05T03:47:30.840Z,5.20
2023-01-05T03:49:58.109Z,5.60
2023-01-05T03:52:25.162Z,5.78
2023-01-05T03:54:52.265Z,4.68
2023-01-05T03:57:19.329Z,6.57
2023-01-05T03:59:46.362Z,6.05
2023-01-05T04:02:13.799Z,4.20
2023-01-05T04:04:40.997Z,5.00
2023-01-05T04:07:08.106Z,5.53
2023-01-05T04:09:35.236Z,4.28
2023-01-05T04:12:02.422Z,4.70
2023-01-05T04:14:29.435Z,4.30
2023-01-05T04:16:56.616Z,6.47
2023-01-05T04:19:23.690Z,4.88
2023-01-05T04:21:50.830Z,6.35
2023-01-05T04:24:18.090Z,4.90
2023-01-05T04:26:45.153Z,4.97
2023-01-05T04:29:12.313Z,4.57
2023-01-05T04:31:39.583Z,5.45
2023-01-05T04:34:06.711Z,6.43
2023-01-05T04:36:33.834Z,5.47
2023-01-05T04:39:00.898Z,6.30
2023-01-05T04:41:27.985Z,5.72
2023-01-05T04:43:55.123Z,6.40
2023-01-05T04:46:22.278Z,5.78
2023-01-05T04:48:49.407Z,6.60
2023-01-05T04:51:16.531Z,7.75
2023-01-05T04:53:43.597Z,6.90
2023-01-05T04:56:10.930Z,5.82
2023-01-05T04:58:38.021Z,4.68
2023-01-05T05:01:05.284Z,6.13
2023-01-05T05:03:33.309Z,8.82
2023-01-05T05:06:01.074Z,8.20
2023-01-05T05:08:28.522Z,8.32
2023-01-05T05:10:55.622Z,6.80
2023-01-05T05:13:22.809Z,10.40
2023-01-05T05:15:49.960Z,6.75
2023-01-05T05:18:17.161Z,6.45
2023-01-05T05:20:49.017Z,8.07
2023-01-05T05:23:16.102Z,8.63
2023-01-05T05:25:43.332Z,15.02
2023-01-05T05:28:10.532Z,9.48
2023-01-05T05:30:40.554Z,7.78
2023-01-05T05:33:07.639Z,9.70
2023-01-05T05:35:34.679Z,8.90
2023-01-05T05:38:01.899Z,8.80
2023-01-05T05:40:29.299Z,8.20
2023-01-05T05:42:56.365Z,6.40
2023-01-05T05:45:23.436Z,7.18
2023-01-05T05:47:50.500Z,6.57
2023-01-05T05:50:17.726Z,6.25
2023-01-05T05:52:45.044Z,6.78
2023-01-05T05:55:12.185Z,5.70
2023-01-05T05:57:40.500Z,6.43
2023-01-05T06:00:08.223Z,6.13
2023-01-05T06:02:35.365Z,7.32
2023-01-05T06:05:02.754Z,6.13
2023-01-05T06:07:30.876Z,7.43
2023-01-05T06:09:57.940Z,5.25
2023-01-05T06:12:25.331Z,6.63
2023-01-05T06:14:52.605Z,5.82
2023-01-05T06:17:19.680Z,5.68
2023-01-05T06:19:46.913Z,7.43
2023-01-05T06:22:14.150Z,4.85
2023-01-05T06:24:41.367Z,5.22
2023-01-05T06:27:08.518Z,4.53
2023-01-05T06:29:35.698Z,4.78
2023-01-05T06:32:02.791Z,5.40
2023-01-05T06:34:29.917Z,4.50
2023-01-05T06:37:02.013Z,5.18
2023-01-05T06:39:29.800Z,5.88
2023-01-05T06:41:56.919Z,6.72
2023-01-05T06:44:24.081Z,11.10
2023-01-05T06:46:51.183Z,8.38
2023-01-05T06:49:18.518Z,13.90
2023-01-05T06:51:45.641Z,6.80
2023-01-05T06:54:12.914Z,10.95
2023-01-05T06:56:40.141Z,6.68
2023-01-05T06:59:07.459Z,5.38
2023-01-05T07:01:34.620Z,6.95
2023-01-05T07:04:01.935Z,7.72
2023-01-05T07:06:29.698Z,5.20
2023-01-05T07:08:56.957Z,7.00
2023-01-05T07:11:24.250Z,7.57
2023-01-05T07:13:51.561Z,5.22
2023-01-05T07:16:19.199Z,4.60
2023-01-05T07:18:46.403Z,5.82
2023-01-05T07:21:13.668Z,5.78
2023-01-05T07:23:41.655Z,8.77
2023-01-05T07:26:09.522Z,6.30
2023-01-05T07:28:38.075Z,5.82
2023-01-05T07:31:07.525Z,6.53
2023-01-05T07:33:39.873Z,7.90
2023-01-05T07:36:08.235Z,8.82
2023-01-05T07:38:35.341Z,6.82
2023-01-05T07:41:03.505Z,6.63
2023-01-05T07:43:31.082Z,6.25
2023-01-05T07:46:01.576Z,5.93
2023-01-05T07:48:28.874Z,7.18
2023-01-05T07:51:04.628Z,5.43
2023-01-05T07:53:38.153Z,5.43
2023-01-05T07:56:12.503Z,5.72
2023-01-05T07:58:40.045Z,5.38
2023-01-05T08:01:12.802Z,8.13
2023-01-05T08:06:13.202Z,6.28
2023-01-05T08:08:40.628Z,8.63
2023-01-05T08:11:09.815Z,12.82
2023-01-05T08:13:55.646Z,7.93
2023-01-05T08:16:23.272Z,8.50
2023-01-05T08:18:50.493Z,8.95
2023-01-05T08:21:17.991Z,7.70
2023-01-05T08:23:46.086Z,6.25
2023-01-05T08:26:16.156Z,10.50
2023-01-05T08:28:43.533Z,8.63
2023-01-05T08:31:17.123Z,12.07
2023-01-05T08:33:44.356Z,32.05
2023-01-05T08:36:15.002Z,10.02
2023-01-05T08:38:48.823Z,9.32
2023-01-05T08:41:21.235Z,12.40
2023-01-05T08:43:53.404Z,8.73
2023-01-05T08:46:25.811Z,9.52
2023-01-05T08:48:56.261Z,10.43
2023-01-05T08:51:23.591Z,6.57
2023-01-05T08:53:50.959Z,9.23
2023-01-05T08:56:18.495Z,9.35
2023-01-05T08:58:45.816Z,9.05
2023-01-05T09:01:18.116Z,8.57
2023-01-05T09:03:45.866Z,7.97
2023-01-05T09:06:13.978Z,7.05
2023-01-05T09:08:42.211Z,8.00
2023-01-05T09:11:18.664Z,9.35
2023-01-05T09:13:52.020Z,10.15
2023-01-05T09:16:42.919Z,8.73
2023-01-05T09:19:10.407Z,13.32
2023-01-05T09:21:39.752Z,7.00
2023-01-05T09:24:14.876Z,8.68
2023-01-05T09:26:45.667Z,9.25
2023-01-05T09:29:12.896Z,7.93
2023-01-05T09:31:44.270Z,10.48
2023-01-05T09:34:11.510Z,8.77
2023-01-05T09:36:41.354Z,7.68
2023-01-05T09:39:08.829Z,7.35
2023-01-05T09:41:47.540Z,8.73
2023-01-05T09:44:37.943Z,9.43
2023-01-05T09:47:18.367Z,8.80
2023-01-05T09:49:48.719Z,9.68
2023-01-05T09:52:16.437Z,6.25
2023-01-05T09:54:43.806Z,6.75
2023-01-05T09:57:19.238Z,7.82
2023-01-05T09:59:55.952Z,7.88
2023-01-05T10:02:29.099Z,5.50
2023-01-05T10:04:57.660Z,5.95
2023-01-05T10:07:47.965Z,7.32
2023-01-05T10:10:33.509Z,5.72
2023-01-05T10:13:03.993Z,6.45
2023-01-05T10:15:44.002Z,6.43
2023-01-05T10:18:21.195Z,10.52
2023-01-05T10:21:03.668Z,9.38
2023-01-05T10:24:08.155Z,8.10
2023-01-05T10:29:50.062Z,8.65
2023-01-05T10:32:29.962Z,7.82
2023-01-05T10:35:01.239Z,9.82
2023-01-05T10:37:46.311Z,7.93
2023-01-05T10:40:35.053Z,7.13
2023-01-05T10:43:07.983Z,7.85
2023-01-05T10:45:57.285Z,7.47
2023-01-05T10:48:34.388Z,6.25
2023-01-05T10:51:02.704Z,7.80
2023-01-05T10:53:30.913Z,6.43
2023-01-05T10:56:12.924Z,7.30
2023-01-05T10:58:42.833Z,6.67
2023-01-05T11:01:28.152Z,7.57
2023-01-05T11:04:33.215Z,8.00
2023-01-05T11:07:06.733Z,7.03
2023-01-05T11:09:39.324Z,5.32
2023-01-05T11:12:11.435Z,5.55
2023-01-05T11:14:43.745Z,6.68
2023-01-05T11:17:21.112Z,6.53
2023-01-05T11:19:52.399Z,7.57
2023-01-05T11:22:28.362Z,7.40
2023-01-05T11:25:12.727Z,7.68
2023-01-05T11:27:40.663Z,7.78
2023-01-05T11:30:21.478Z,8.02
2023-01-05T11:32:48.894Z,4.95
2023-01-05T11:35:25.128Z,9.75
2023-01-05T11:37:52.590Z,8.05
2023-01-05T11:40:21.968Z,6.78
2023-01-05T11:42:49.176Z,7.38
2023-01-05T11:45:22.128Z,6.90
2023-01-05T11:48:00.451Z,7.28
2023-01-05T11:50:49.338Z,10.45
2023-01-05T11:53:34.605Z,7.43
2023-01-05T11:56:22.960Z,5.93
2023-01-05T11:58:55.720Z,6.38
2023-01-05T12:04:23.217Z,7.78
2023-01-05T12:07:29.951Z,8.20
2023-01-05T12:10:13.655Z,9.98
2023-01-05T12:13:09.080Z,8.23
2023-01-05T12:15:45.525Z,8.07
2023-01-05T12:18:21.408Z,8.77
2023-01-05T12:21:00.193Z,8.43
2023-01-05T12:23:45.297Z,7.45
2023-01-05T12:26:28.271Z,9.68
2023-01-05T12:35:43.277Z,7.18
2023-01-05T12:38:31.184Z,9.20
2023-01-05T12:41:39.889Z,6.88
2023-01-05T12:44:32.847Z,8.07
2023-01-05T12:46:59.999Z,8.07
2023-01-05T12:49:49.728Z,6.85
2023-01-05T12:52:36.236Z,8.17
2023-01-05T12:55:06.610Z,7.10
2023-01-05T12:57:40.578Z,7.68
2023-01-05T13:00:13.096Z,7.20
2023-01-05T13:03:02.392Z,9.77
2023-01-05T13:05:46.753Z,10.03
2023-01-05T13:08:17.790Z,7.77
2023-01-05T13:10:57.679Z,6.60
2023-01-05T13:13:43.031Z,6.00
2023-01-05T13:16:22.244Z,9.03
2023-01-05T13:19:05.269Z,7.83
2023-01-05T13:24:10.013Z,6.97
2023-01-05T13:26:38.423Z,10.53
2023-01-05T13:29:05.846Z,7.70
2023-01-05T13:32:14.126Z,7.73
2023-01-05T13:34:50.397Z,7.53
2023-01-05T13:37:26.123Z,9.93
2023-01-05T13:40:03.392Z,8.13
2023-01-05T13:42:46.422Z,7.60
2023-01-05T13:48:10.017Z,7.57
2023-01-05T13:51:04.117Z,8.67
2023-01-05T13:53:35.740Z,6.43
2023-01-05T13:56:14.445Z,7.13
2023-01-05T13:58:48.689Z,7.43
2023-01-05T14:01:39.503Z,5.10
2023-01-05T14:04:23.922Z,8.53
2023-01-05T14:06:55.665Z,7.93
2023-01-05T14:09:36.054Z,7.72
2023-01-05T14:12:40.759Z,8.20
2023-01-05T14:15:12.631Z,9.23
2023-01-05T14:17:55.559Z,8.93
2023-01-05T14:20:53.761Z,8.00
2023-01-05T14:23:26.668Z,9.13
2023-01-05T14:26:01.636Z,7.23
2023-01-05T14:28:28.768Z,7.17
2023-01-05T14:31:14.533Z,5.77
2023-01-05T14:34:13.619Z,6.20
2023-01-05T14:36:40.707Z,7.27
2023-01-05T14:39:19.812Z,6.80
2023-01-05T14:42:12.256Z,10.00
2023-01-05T14:44:51.731Z,7.35
2023-01-05T14:47:39.598Z,9.73
2023-01-05T14:50:26.372Z,9.70
2023-01-05T14:52:59.608Z,9.83
2023-01-05T14:55:38.599Z,10.27
2023-01-05T14:58:38.454Z,6.07
2023-01-05T15:01:17.808Z,8.30
2023-01-05T15:04:15.449Z,5.23
2023-01-05T15:06:42.538Z,7.00
2023-01-05T15:09:45.047Z,8.97
2023-01-05T15:12:52.340Z,8.25
2023-01-05T15:15:58.233Z,7.00
2023-01-05T15:18:34.266Z,7.47
2023-01-05T15:21:38.358Z,9.17
2023-01-05T15:24:08.735Z,7.70
2023-01-05T15:26:35.736Z,6.40
2023-01-05T15:29:41.602Z,8.37
2023-01-05T15:32:23.627Z,6.37
2023-01-05T15:35:14.958Z,7.00
2023-01-05T15:37:43.327Z,9.00
2023-01-05T15:40:16.040Z,8.37
2023-01-05T15:42:48.469Z,7.43
2023-01-05T15:45:20.314Z,9.43
2023-01-05T15:47:47.983Z,8.23
2023-01-05T15:50:27.215Z,6.60
2023-01-05T15:52:59.731Z,9.00
2023-01-05T15:58:00.618Z,6.63
2023-01-05T16:00:32.786Z,7.50
2023-01-05T16:03:00.281Z,4.72
2023-01-05T16:05:32.818Z,7.50
2023-01-05T16:08:07.488Z,11.70
2023-01-05T16:10:40.722Z,7.97
2023-01-05T16:13:15.619Z,7.93
2023-01-05T16:15:46.304Z,10.63
2023-01-05T16:18:18.227Z,7.10
2023-01-05T16:20:50.141Z,9.20
2023-01-05T16:23:31.624Z,6.40
2023-01-05T16:26:00.051Z,8.90
2023-01-05T16:28:27.521Z,6.13
2023-01-05T16:30:55.887Z,7.80
2023-01-05T16:33:38.590Z,8.97
2023-01-05T16:36:08.867Z,6.35
2023-01-05T16:38:36.400Z,10.73
2023-01-05T16:41:15.559Z,8.87
2023-01-05T16:43:54.189Z,7.63
2023-01-05T16:46:24.049Z,8.93
2023-01-05T16:49:16.356Z,8.83
2023-01-05T16:51:43.611Z,7.33
2023-01-05T16:54:20.818Z,12.30
2023-01-05T16:57:01.743Z,9.83
2023-01-05T16:59:40.889Z,8.20
2023-01-05T17:02:26.675Z,8.60
2023-01-05T17:04:53.715Z,10.20
2023-01-05T17:07:21.059Z,8.83
2023-01-05T17:09:48.432Z,11.03
2023-01-05T17:12:15.989Z,8.87
2023-01-05T17:14:44.777Z,7.80
2023-01-05T17:17:15.380Z,6.57
2023-01-05T17:19:42.856Z,10.70
2023-01-05T17:22:12.806Z,7.40
2023-01-05T17:24:40.344Z,7.27
2023-01-05T17:27:10.189Z,8.07
2023-01-05T17:29:37.734Z,8.43
2023-01-05T17:32:05.129Z,7.73
2023-01-05T17:34:32.321Z,9.80
2023-01-05T17:37:00.877Z,8.50
2023-01-05T17:39:28.141Z,10.57
2023-01-05T17:42:15.252Z,9.27
2023-01-05T17:44:42.586Z,7.67
2023-01-05T17:47:09.871Z,10.03
2023-01-05T17:49:37.068Z,6.53
2023-01-05T17:54:36.448Z,6.85
2023-01-05T17:57:04.279Z,7.10
2023-01-05T17:59:31.593Z,11.23
2023-01-05T18:01:58.706Z,8.60
2023-01-05T18:04:27.184Z,8.67
2023-01-05T18:06:55.880Z,8.63
2023-01-05T18:11:51.770Z,10.63
2023-01-05T18:14:19.714Z,9.00
2023-01-05T18:16:46.867Z,12.03
2023-01-05T18:21:47.403Z,10.37
2023-01-05T18:24:14.489Z,13.57
2023-01-05T18:26:41.599Z,9.77
2023-01-05T18:29:08.702Z,10.13
2023-01-05T18:31:38.612Z,13.77
2023-01-05T18:34:07.469Z,10.93
2023-01-05T18:36:34.640Z,10.87
2023-01-05T18:39:01.820Z,8.40
2023-01-05T18:41:29.046Z,9.70
2023-01-05T18:43:56.275Z,14.03
2023-01-05T18:46:23.419Z,12.47
2023-01-05T18:48:51.560Z,13.33
2023-01-05T18:51:18.769Z,12.83
2023-01-05T18:53:45.870Z,10.20
2023-01-05T18:56:14.305Z,13.30
2023-01-05T18:58:42.165Z,9.90
2023-01-05T19:01:14.959Z,10.83
2023-01-05T19:03:42.475Z,14.40
2023-01-05T19:06:13.344Z,11.97
2023-01-05T19:08:42.380Z,11.00
2023-01-05T19:11:17.887Z,13.73
2023-01-05T19:13:47.108Z,14.27
2023-01-05T19:16:17.526Z,13.07
2023-01-05T19:18:48.996Z,11.93
2023-01-05T19:21:16.602Z,6.78
2023-01-05T19:23:43.745Z,11.17
2023-01-05T19:26:12.742Z,13.37
2023-01-05T19:28:40.736Z,11.57
2023-01-05T19:31:11.295Z,14.47
2023-01-05T19:33:39.531Z,15.20
2023-01-05T19:36:15.594Z,9.63
2023-01-05T19:38:43.654Z,12.10
2023-01-05T19:41:19.422Z,16.10
2023-01-05T19:43:51.793Z,15.03
2023-01-05T19:48:47.406Z,10.37
2023-01-05T19:51:17.609Z,16.07
2023-01-05T19:53:45.540Z,11.67
2023-01-05T19:56:14.971Z,12.37
2023-01-05T19:58:43.355Z,13.47
2023-01-05T20:01:15.703Z,13.77
2023-01-05T20:06:19.857Z,15.67
2023-01-05T20:08:52.651Z,9.07
2023-01-05T20:11:48.754Z,14.40
2023-01-05T20:14:20.264Z,13.60
2023-01-05T20:16:53.344Z,12.90
2023-01-05T20:19:21.140Z,16.07
2023-01-05T20:21:49.881Z,15.90
2023-01-05T20:24:20.168Z,14.90
2023-01-05T20:26:47.867Z,12.07
2023-01-05T20:29:17.254Z,14.73
2023-01-05T20:31:47.304Z,14.20
2023-01-05T20:34:18.664Z,13.33
2023-01-05T20:36:46.558Z,14.70
2023-01-05T20:39:17.233Z,13.57
2023-01-05T20:41:47.366Z,12.00
2023-01-05T20:44:15.399Z,11.43
2023-01-05T20:46:45.797Z,11.50
2023-01-05T20:49:13.675Z,14.63
2023-01-05T20:51:41.208Z,11.63
2023-01-05T20:54:10.288Z,13.13
2023-01-05T20:56:39.619Z,11.63
2023-01-05T20:59:12.765Z,18.07
2023-01-05T21:01:40.476Z,12.70
2023-01-05T21:04:07.650Z,8.30
2023-01-05T21:06:35.336Z,11.60
2023-01-05T21:09:03.415Z,18.17
2023-01-05T21:11:30.885Z,11.37
2023-01-05T21:13:58.739Z,17.00
2023-01-05T21:16:28.945Z,18.87
2023-01-05T21:18:56.928Z,16.13
2023-01-05T21:21:25.684Z,10.40
2023-01-05T21:23:53.842Z,10.67
2023-01-05T21:26:22.580Z,14.27
2023-01-05T21:28:53.197Z,13.93
2023-01-05T21:31:24.459Z,15.27
2023-01-05T21:33:51.998Z,6.85
2023-01-05T21:36:22.441Z,13.23
2023-01-05T21:39:03.529Z,13.20
2023-01-05T21:41:52.520Z,11.80
2023-01-05T21:44:20.608Z,14.20
2023-01-05T21:46:49.084Z,14.77
2023-01-05T21:49:17.339Z,12.20
2023-01-05T21:52:03.614Z,9.83
2023-01-05T21:54:50.084Z,12.73
2023-01-05T21:57:17.668Z,10.10
2023-01-05T21:59:45.453Z,12.17
2023-01-05T22:02:14.115Z,11.17
2023-01-05T22:04:41.745Z,11.80
2023-01-05T22:07:09.448Z,6.63
2023-01-05T22:09:37.200Z,10.00
2023-01-05T22:12:08.820Z,13.70
2023-01-05T22:14:37.293Z,10.88
2023-01-05T22:17:06.237Z,15.70
2023-01-05T22:19:33.699Z,9.30
2023-01-05T22:22:01.123Z,13.07
2023-01-05T22:24:28.584Z,6.60
2023-01-05T22:26:55.823Z,9.50
2023-01-05T22:29:23.577Z,6.27
2023-01-05T22:31:51.173Z,9.97
2023-01-05T22:34:18.685Z,10.63
2023-01-05T22:36:46.379Z,9.80
2023-01-05T22:39:13.862Z,8.60
2023-01-05T22:41:41.460Z,7.43
2023-01-05T22:44:09.082Z,11.43
2023-01-05T22:46:36.505Z,7.93
2023-01-05T22:49:04.397Z,8.43
2023-01-05T22:51:34.239Z,10.00
2023-01-05T22:54:02.133Z,8.50
2023-01-05T22:56:31.978Z,7.97
2023-01-05T22:59:00.220Z,6.47
2023-01-05T23:01:53.604Z,9.93
2023-01-05T23:04:21.012Z,10.20
2023-01-05T23:06:48.116Z,9.57
2023-01-05T23:09:16.755Z,11.53
2023-01-05T23:11:46.343Z,9.07
2023-01-05T23:14:15.031Z,6.17
2023-01-05T23:16:42.268Z,9.90
2023-01-05T23:19:10.171Z,7.80
2023-01-05T23:21:37.333Z,9.77
2023-01-05T23:24:05.200Z,8.17
2023-01-05T23:26:32.519Z,8.97
2023-01-05T23:28:59.957Z,9.20
2023-01-05T23:31:27.570Z,9.43
2023-01-05T23:33:55.147Z,7.40
2023-01-05T23:36:23.763Z,5.23
2023-01-05T23:38:51.210Z,9.83
2023-01-05T23:41:18.863Z,7.73
2023-01-05T23:43:46.782Z,7.43
2023-01-05T23:46:20.569Z,4.17
2023-01-05T23:48:49.257Z,7.87
2023-01-05T23:51:17.392Z,7.83
2023-01-05T23:53:49.939Z,7.77
2023-01-05T23:56:28.960Z,7.17
2023-01-05T23:59:07.003Z,8.33
